Time;durP1;ratioP1;P1;durP2;ratioP2;P2;SDS_P1;SDS_P2;PMS_P1;PMS_P2;Temp;Humidity;BMP_temperature;BMP_pressure;BME280_temperature;BME280_humidity;BME280_pressure;Samples;Min_cycle;Max_cycle;Signal;HPM_P1;HPM_P2
2022/08/18 00:02:11;;;;;;;14.83;9.47;;;;;;;;;;5071689;28;20491;-75
2022/08/18 00:04:37;;;;;;;11.43;8.90;;;;;;;;;;5073235;28;20510;-75
2022/08/18 00:07:16;;;;;;;14.90;9.33;;;;;;;;;;5073648;28;20856;-75
2022/08/18 00:09:43;;;;;;;13.43;9.03;;;;;;;;;;5071918;28;20502;-75
2022/08/18 00:12:16;;;;;;;9.63;8.67;;;;;;;;;;5054974;28;20932;-75
2022/08/18 00:14:43;;;;;;;12.97;8.83;;;;;;;;;;5084285;28;20443;-75
2022/08/18 00:17:10;;;;;;;10.63;8.13;;;;;;;;;;5096337;28;20429;-74
2022/08/18 00:19:36;;;;;;;9.50;8.50;;;;;;;;;;5117105;28;20431;-74
2022/08/18 00:22:15;;;;;;;10.80;8.60;;;;;;;;;;5083170;28;20464;-75
2022/08/18 00:24:43;;;;;;;8.80;8.00;;;;;;;;;;5075333;28;20454;-75
2022/08/18 00:27:18;;;;;;;21.53;9.23;;;;;;;;;;5072803;28;20449;-75
2022/08/18 00:29:47;;;;;;;9.07;8.27;;;;;;;;;;5072628;28;20453;-75
2022/08/18 00:32:15;;;;;;;10.40;8.57;;;;;;;;;;5071264;28;20536;-75
2022/08/18 00:34:42;;;;;;;14.23;8.90;;;;;;;;;;5088062;28;20442;-75
2022/08/18 00:37:08;;;;;;;8.17;7.37;;;;;;;;;;5088037;28;20456;-75
2022/08/18 00:39:35;;;;;;;9.50;8.80;;;;;;;;;;5071000;28;20546;-75
2022/08/18 00:42:16;;;;;;;10.50;8.10;;;;;;;;;;5071071;28;20464;-75
2022/08/18 00:44:57;;;;;;;9.27;8.57;;;;;;;;;;5058097;28;20516;-75
2022/08/18 00:47:27;;;;;;;10.73;8.17;;;;;;;;;;5070959;28;20928;-75
2022/08/18 00:50:08;;;;;;;11.83;8.30;;;;;;;;;;5085928;28;20432;-75
2022/08/18 00:52:42;;;;;;;9.70;7.90;;;;;;;;;;5055152;28;20475;-75
2022/08/18 00:55:09;;;;;;;10.67;9.37;;;;;;;;;;5087866;28;20901;-75
2022/08/18 00:57:36;;;;;;;8.57;7.77;;;;;;;;;;5087645;28;20444;-75
2022/08/18 01:00:10;;;;;;;11.80;8.37;;;;;;;;;;5070906;28;20502;-75
2022/08/18 01:02:40;;;;;;;12.63;8.37;;;;;;;;;;5070753;28;20513;-75
2022/08/18 01:05:13;;;;;;;9.97;8.23;;;;;;;;;;5070679;28;20429;-75
2022/08/18 01:07:44;;;;;;;9.23;8.50;;;;;;;;;;5070749;28;20825;-75
2022/08/18 01:10:18;;;;;;;9.07;8.17;;;;;;;;;;5071890;28;20438;-75
2022/08/18 01:12:47;;;;;;;11.30;9.27;;;;;;;;;;5071515;28;20428;-75
2022/08/18 01:15:14;;;;;;;10.23;8.53;;;;;;;;;;5071692;28;20425;-75
2022/08/18 01:23:51;;;;;;;10.93;8.23;;;;;;;;;;5067853;28;20464;-75
2022/08/18 01:26:18;;;;;;;8.87;8.00;;;;;;;;;;5070205;28;20940;-75
2022/08/18 01:28:45;;;;;;;13.33;8.97;;;;;;;;;;5070207;28;20498;-75
2022/08/18 01:31:28;;;;;;;8.30;7.50;;;;;;;;;;5070275;28;20460;-75
2022/08/18 01:33:56;;;;;;;9.37;8.47;;;;;;;;;;5087015;28;20473;-75
2022/08/18 01:36:22;;;;;;;9.33;8.13;;;;;;;;;;5087189;28;20466;-75
2022/08/18 01:38:51;;;;;;;9.80;8.13;;;;;;;;;;5087146;28;20448;-75
2022/08/18 01:41:18;;;;;;;9.60;6.97;;;;;;;;;;5116388;28;20455;-75
2022/08/18 01:43:55;;;;;;;7.17;6.50;;;;;;;;;;5107425;28;20418;-75
2022/08/18 01:46:22;;;;;;;6.47;5.97;;;;;;;;;;5091212;28;20482;-75
2022/08/18 01:48:49;;;;;;;7.77;7.03;;;;;;;;;;5070348;28;20452;-75
2022/08/18 01:51:18;;;;;;;7.80;5.87;;;;;;;;;;5071581;28;20489;-75
2022/08/18 01:53:45;;;;;;;7.53;6.83;;;;;;;;;;5070205;28;20498;-75
2022/08/18 01:56:11;;;;;;;8.30;7.07;;;;;;;;;;5086704;28;20519;-75
2022/08/18 01:58:38;;;;;;;7.40;6.70;;;;;;;;;;5086795;28;20505;-75
2022/08/18 02:01:05;;;;;;;9.57;6.67;;;;;;;;;;5071308;28;20959;-75
2022/08/18 02:03:35;;;;;;;7.00;6.40;;;;;;;;;;5070210;28;21049;-75
2022/08/18 02:06:03;;;;;;;7.63;6.93;;;;;;;;;;5069913;28;20464;-76
2022/08/18 02:08:30;;;;;;;9.53;7.20;;;;;;;;;;5084339;28;20447;-75
2022/08/18 02:10:58;;;;;;;8.23;6.60;;;;;;;;;;5067874;28;20590;-75
2022/08/18 02:13:25;;;;;;;8.10;7.17;;;;;;;;;;5063997;28;20447;-75
2022/08/18 02:15:52;;;;;;;6.57;6.00;;;;;;;;;;5086509;28;20432;-75
2022/08/18 02:18:22;;;;;;;6.70;6.20;;;;;;;;;;5070788;28;20464;-75
2022/08/18 02:21:11;;;;;;;9.30;6.40;;;;;;;;;;5069336;28;20495;-75
2022/08/18 02:23:38;;;;;;;9.33;6.40;;;;;;;;;;5066334;28;20496;-75
2022/08/18 02:26:09;;;;;;;7.87;7.17;;;;;;;;;;5077555;28;20419;-75
2022/08/18 02:28:35;;;;;;;6.73;6.13;;;;;;;;;;5094075;28;20490;-75
2022/08/18 02:31:03;;;;;;;9.40;6.33;;;;;;;;;;5077439;28;20443;-75
2022/08/18 02:33:29;;;;;;;8.10;6.20;;;;;;;;;;5094292;28;20549;-75
2022/08/18 02:35:56;;;;;;;7.50;6.80;;;;;;;;;;5094142;28;20459;-75
2022/08/18 02:38:22;;;;;;;7.63;6.43;;;;;;;;;;5077278;28;20869;-75
2022/08/18 02:40:56;;;;;;;8.87;6.60;;;;;;;;;;5077039;28;20855;-75
2022/08/18 02:43:23;;;;;;;13.80;6.50;;;;;;;;;;5093674;28;20536;-75
2022/08/18 02:45:49;;;;;;;8.87;8.03;;;;;;;;;;5077105;28;20431;-75
2022/08/18 02:48:20;;;;;;;6.90;5.80;;;;;;;;;;5076958;28;20829;-75
2022/08/18 02:50:47;;;;;;;8.50;6.63;;;;;;;;;;5093604;28;20444;-75
2022/08/18 02:53:23;;;;;;;7.90;7.30;;;;;;;;;;5093594;28;20955;-75
2022/08/18 02:55:50;;;;;;;8.50;6.27;;;;;;;;;;5094874;28;20465;-75
2022/08/18 02:58:19;;;;;;;8.13;6.50;;;;;;;;;;5093735;28;20446;-75
2022/08/18 03:00:46;;;;;;;6.87;6.37;;;;;;;;;;5094840;28;20926;-75
2022/08/18 03:03:12;;;;;;;7.80;7.00;;;;;;;;;;5094752;28;20501;-75
2022/08/18 03:05:39;;;;;;;9.97;6.60;;;;;;;;;;5093785;28;20420;-75
2022/08/18 03:08:05;;;;;;;7.33;6.23;;;;;;;;;;5094680;28;20526;-75
2022/08/18 03:10:32;;;;;;;13.77;6.23;;;;;;;;;;5116727;28;20522;-75
2022/08/18 03:12:59;;;;;;;7.63;6.50;;;;;;;;;;5077831;28;20980;-75
2022/08/18 03:15:26;;;;;;;7.37;6.60;;;;;;;;;;5112075;28;20423;-75
2022/08/18 03:17:53;;;;;;;7.30;6.60;;;;;;;;;;5105930;28;20439;-75
2022/08/18 03:20:20;;;;;;;6.37;5.77;;;;;;;;;;5076802;28;20445;-75
2022/08/18 03:22:57;;;;;;;11.27;7.13;;;;;;;;;;5074229;28;20943;-75
2022/08/18 03:25:23;;;;;;;8.57;5.57;;;;;;;;;;5089537;28;20443;-74
2022/08/18 03:27:50;;;;;;;9.83;7.20;;;;;;;;;;5071682;28;20490;-74
2022/08/18 03:30:17;;;;;;;11.83;5.93;;;;;;;;;;5072188;28;20826;-75
2022/08/18 03:32:43;;;;;;;10.43;6.47;;;;;;;;;;5071978;28;20437;-75
2022/08/18 03:35:13;;;;;;;6.63;6.03;;;;;;;;;;5073233;28;20456;-75
2022/08/18 03:37:39;;;;;;;11.53;5.70;;;;;;;;;;5071471;28;20472;-75
2022/08/18 03:40:06;;;;;;;8.70;6.23;;;;;;;;;;5055115;28;20986;-75
2022/08/18 03:42:33;;;;;;;7.73;6.43;;;;;;;;;;5088041;28;20467;-75
2022/08/18 03:45:00;;;;;;;5.77;5.27;;;;;;;;;;5071585;28;20421;-75
2022/08/18 03:47:44;;;;;;;9.13;6.50;;;;;;;;;;5072699;28;20412;-75
2022/08/18 03:50:11;;;;;;;11.53;6.87;;;;;;;;;;5072675;28;20424;-75
2022/08/18 03:52:39;;;;;;;6.43;5.73;;;;;;;;;;5087839;28;20433;-75
2022/08/18 03:55:07;;;;;;;7.47;6.17;;;;;;;;;;5071826;28;20424;-75
2022/08/18 03:57:34;;;;;;;6.47;5.50;;;;;;;;;;5071589;28;20523;-75
2022/08/18 04:00:05;;;;;;;9.90;6.43;;;;;;;;;;5088313;28;20455;-75
2022/08/18 04:02:31;;;;;;;6.63;5.80;;;;;;;;;;5088459;28;20455;-75
2022/08/18 04:04:58;;;;;;;7.80;6.60;;;;;;;;;;5088148;28;20420;-75
2022/08/18 04:07:24;;;;;;;6.60;6.00;;;;;;;;;;5071426;28;20468;-75
2022/08/18 04:09:51;;;;;;;5.70;5.20;;;;;;;;;;5088184;28;20893;-75
2022/08/18 04:12:17;;;;;;;7.27;5.40;;;;;;;;;;5072531;28;20527;-75
2022/08/18 04:14:46;;;;;;;9.30;6.33;;;;;;;;;;5071026;28;20437;-75
2022/08/18 04:17:14;;;;;;;6.37;5.77;;;;;;;;;;5049084;28;1127507;-75
2022/08/18 04:19:41;;;;;;;7.90;5.90;;;;;;;;;;5076637;28;20211;-75
2022/08/18 04:22:08;;;;;;;6.20;5.70;;;;;;;;;;5091382;28;20542;-75
2022/08/18 04:24:35;;;;;;;6.43;5.93;;;;;;;;;;5093087;28;20423;-75
2022/08/18 04:27:05;;;;;;;6.90;5.77;;;;;;;;;;5078843;28;20432;-75
2022/08/18 04:29:31;;;;;;;5.80;5.43;;;;;;;;;;5094353;28;20805;-75
2022/08/18 04:32:01;;;;;;;6.60;6.10;;;;;;;;;;5094776;28;20420;-75
2022/08/18 04:34:28;;;;;;;10.23;6.50;;;;;;;;;;5077568;28;20430;-75
2022/08/18 04:36:54;;;;;;;6.77;6.07;;;;;;;;;;5095428;28;20424;-75
2022/08/18 04:39:22;;;;;;;15.80;6.70;;;;;;;;;;5094830;28;20528;-75
2022/08/18 04:41:49;;;;;;;6.10;5.50;;;;;;;;;;5095181;28;20430;-74
2022/08/18 04:44:17;;;;;;;6.93;6.23;;;;;;;;;;5076887;28;20494;-74
2022/08/18 04:46:46;;;;;;;8.53;6.43;;;;;;;;;;5084500;28;20436;-74
2022/08/18 04:49:13;;;;;;;6.63;6.03;;;;;;;;;;5087017;28;20588;-74
2022/08/18 04:51:42;;;;;;;6.73;6.00;;;;;;;;;;5107504;28;20412;-74
2022/08/18 04:54:28;;;;;;;6.30;5.70;;;;;;;;;;5095177;28;20470;-75
2022/08/18 04:56:55;;;;;;;5.87;5.37;;;;;;;;;;5075662;28;20461;-74
2022/08/18 04:59:21;;;;;;;6.60;5.97;;;;;;;;;;5110122;28;20455;-74
2022/08/18 05:01:48;;;;;;;8.63;6.27;;;;;;;;;;5076564;28;20490;-75
2022/08/18 05:04:16;;;;;;;6.93;6.27;;;;;;;;;;5091078;28;20458;-75
2022/08/18 05:06:43;;;;;;;6.87;6.17;;;;;;;;;;5091849;28;20424;-75
2022/08/18 05:09:10;;;;;;;7.63;7.03;;;;;;;;;;5075106;28;20509;-74
2022/08/18 05:11:37;;;;;;;7.53;6.73;;;;;;;;;;5074860;28;20516;-75
2022/08/18 05:14:06;;;;;;;10.33;7.20;;;;;;;;;;5070216;28;20963;-75
2022/08/18 05:16:35;;;;;;;6.43;5.93;;;;;;;;;;5072156;28;20956;-75
2022/08/18 05:19:15;;;;;;;7.23;6.53;;;;;;;;;;5072414;28;20556;-74
2022/08/18 05:21:45;;;;;;;8.20;7.40;;;;;;;;;;5070346;28;21025;-74
2022/08/18 05:24:15;;;;;;;10.40;6.80;;;;;;;;;;5086484;28;20456;-74
2022/08/18 05:26:42;;;;;;;9.57;6.70;;;;;;;;;;5070155;28;20432;-74
2022/08/18 05:29:09;;;;;;;7.00;6.40;;;;;;;;;;5087156;28;20547;-74
2022/08/18 05:31:45;;;;;;;10.40;7.20;;;;;;;;;;5071523;28;20867;-74
2022/08/18 05:34:11;;;;;;;7.23;6.53;;;;;;;;;;5070249;28;20469;-75
2022/08/18 05:36:47;;;;;;;8.70;7.40;;;;;;;;;;5070186;28;20421;-75
2022/08/18 05:39:17;;;;;;;7.90;7.30;;;;;;;;;;5053519;28;20491;-75
2022/08/18 05:41:59;;;;;;;7.03;6.43;;;;;;;;;;5070206;28;20523;-74
2022/08/18 05:44:28;;;;;;;7.77;6.10;;;;;;;;;;5070114;28;20460;-74
2022/08/18 05:47:01;;;;;;;8.07;7.33;;;;;;;;;;5070307;28;20421;-74
2022/08/18 05:49:27;;;;;;;6.67;6.00;;;;;;;;;;5071368;28;20888;-75
2022/08/18 05:51:57;;;;;;;7.40;6.80;;;;;;;;;;5070107;28;20786;-75
2022/08/18 05:57:31;;;;;;;9.40;6.67;;;;;;;;;;5018156;28;20889;-75
2022/08/18 05:59:58;;;;;;;6.77;6.13;;;;;;;;;;5065936;28;20463;-75
2022/08/18 06:02:35;;;;;;;11.33;6.10;;;;;;;;;;5073124;28;20518;-75
2022/08/18 06:05:06;;;;;;;8.40;6.40;;;;;;;;;;5073580;28;20435;-75
2022/08/18 06:07:34;;;;;;;10.70;6.57;;;;;;;;;;5073077;28;20538;-75
2022/08/18 06:10:01;;;;;;;6.40;5.80;;;;;;;;;;5073078;28;20444;-75
2022/08/18 06:12:42;;;;;;;9.07;6.30;;;;;;;;;;5065949;28;20432;-74
2022/08/18 06:15:31;;;;;;;7.30;6.60;;;;;;;;;;5069712;28;20424;-74
2022/08/18 06:17:58;;;;;;;11.67;7.90;;;;;;;;;;5069629;28;21006;-74
2022/08/18 06:20:34;;;;;;;6.97;6.37;;;;;;;;;;5070937;28;20776;-74
2022/08/18 06:23:00;;;;;;;6.77;6.20;;;;;;;;;;5069641;28;20497;-74
2022/08/18 06:25:46;;;;;;;6.93;6.30;;;;;;;;;;5052916;28;20456;-74
2022/08/18 06:28:14;;;;;;;8.90;7.00;;;;;;;;;;5069542;28;20468;-74
2022/08/18 06:30:41;;;;;;;6.73;6.13;;;;;;;;;;5070852;28;20415;-74
2022/08/18 06:33:14;;;;;;;7.43;6.67;;;;;;;;;;5069717;28;20436;-74
2022/08/18 06:35:43;;;;;;;6.40;5.80;;;;;;;;;;5089928;28;20424;-74
2022/08/18 06:41:11;;;;;;;8.43;6.30;;;;;;;;;;5092521;28;20401;-74
2022/08/18 06:43:58;;;;;;;8.80;6.07;;;;;;;;;;5092023;28;20437;-74
2022/08/18 06:46:40;;;;;;;7.40;6.80;;;;;;;;;;5092243;28;20423;-75
2022/08/18 06:49:13;;;;;;;8.80;5.90;;;;;;;;;;5090883;28;20935;-75
2022/08/18 06:51:39;;;;;;;7.07;6.23;;;;;;;;;;5072851;28;20439;-75
2022/08/18 06:54:06;;;;;;;7.20;6.47;;;;;;;;;;5089576;28;20438;-74
2022/08/18 06:56:39;;;;;;;7.17;6.57;;;;;;;;;;5089597;28;20466;-74
2022/08/18 06:59:17;;;;;;;10.77;8.07;;;;;;;;;;5072805;28;21011;-74
2022/08/18 07:01:46;;;;;;;7.83;7.03;;;;;;;;;;5091250;28;20442;-74
2022/08/18 07:04:31;;;;;;;7.50;6.80;;;;;;;;;;5089441;28;20464;-74
2022/08/18 07:06:58;;;;;;;6.30;5.90;;;;;;;;;;5089457;28;20825;-74
2022/08/18 07:09:31;;;;;;;6.57;6.07;;;;;;;;;;5089397;28;20478;-74
2022/08/18 07:11:58;;;;;;;8.50;7.70;;;;;;;;;;5072809;28;20417;-74
2022/08/18 07:14:25;;;;;;;8.43;6.53;;;;;;;;;;5072830;28;20473;-74
2022/08/18 07:17:05;;;;;;;12.20;6.30;;;;;;;;;;5072518;28;20522;-74
2022/08/18 07:19:32;;;;;;;7.23;6.73;;;;;;;;;;5072638;28;20515;-74
2022/08/18 07:22:01;;;;;;;12.40;6.90;;;;;;;;;;5072509;28;21007;-74
2022/08/18 07:24:30;;;;;;;8.30;7.30;;;;;;;;;;5089473;28;20460;-75
2022/08/18 07:26:59;;;;;;;8.07;7.20;;;;;;;;;;5073911;28;20866;-74
2022/08/18 07:29:26;;;;;;;7.90;7.07;;;;;;;;;;5089498;28;20480;-75
2022/08/18 07:31:53;;;;;;;7.83;7.20;;;;;;;;;;5073952;28;20482;-75
2022/08/18 07:34:30;;;;;;;7.30;6.50;;;;;;;;;;5072531;28;20471;-75
2022/08/18 07:37:00;;;;;;;7.83;7.10;;;;;;;;;;5072531;28;20443;-74
2022/08/18 07:39:39;;;;;;;11.10;6.63;;;;;;;;;;5055685;28;20529;-75
2022/08/18 07:42:19;;;;;;;7.17;6.53;;;;;;;;;;5072459;28;20441;-75
2022/08/18 07:45:05;;;;;;;6.53;6.13;;;;;;;;;;5058397;28;20467;-75
2022/08/18 07:47:48;;;;;;;7.93;7.00;;;;;;;;;;5055647;28;20852;-74
2022/08/18 07:50:15;;;;;;;6.53;5.93;;;;;;;;;;5072215;28;20527;-74
2022/08/18 07:53:10;;;;;;;7.60;6.90;;;;;;;;;;5072358;28;20790;-74
2022/08/18 07:55:38;;;;;;;7.90;7.17;;;;;;;;;;5055561;28;20463;-74
2022/08/18 07:58:14;;;;;;;7.67;7.07;;;;;;;;;;5071884;28;20460;-74
2022/08/18 08:00:59;;;;;;;7.20;6.37;;;;;;;;;;5055261;28;20940;-74
2022/08/18 08:03:26;;;;;;;8.00;7.10;;;;;;;;;;5071961;28;20515;-74
2022/08/18 08:06:02;;;;;;;8.97;7.73;;;;;;;;;;5055269;28;20425;-75
2022/08/18 08:08:34;;;;;;;8.30;6.60;;;;;;;;;;5071821;28;20940;-75
2022/08/18 08:11:06;;;;;;;8.13;7.43;;;;;;;;;;5072135;28;20446;-74
2022/08/18 08:13:39;;;;;;;13.50;7.43;;;;;;;;;;5088676;28;20433;-75
2022/08/18 08:16:36;;;;;;;7.90;7.20;;;;;;;;;;5073055;28;20428;-75
2022/08/18 08:19:21;;;;;;;7.33;6.80;;;;;;;;;;5088119;28;20459;-74
2022/08/18 08:22:12;;;;;;;7.50;6.80;;;;;;;;;;5086592;28;20478;-74
2022/08/18 08:24:57;;;;;;;9.90;7.03;;;;;;;;;;5094077;28;20463;-75
2022/08/18 08:27:47;;;;;;;9.03;7.73;;;;;;;;;;5114011;28;20463;-74
2022/08/18 08:30:16;;;;;;;7.30;6.70;;;;;;;;;;5115115;28;20421;-74
2022/08/18 08:32:43;;;;;;;8.73;7.93;;;;;;;;;;5094666;28;20446;-74
2022/08/18 08:35:11;;;;;;;7.80;6.83;;;;;;;;;;5092847;28;20477;-75
2022/08/18 08:38:01;;;;;;;9.57;7.60;;;;;;;;;;5064307;28;21392;-75
2022/08/18 08:40:54;;;;;;;9.13;7.17;;;;;;;;;;5081698;28;20514;-75
2022/08/18 08:43:28;;;;;;;8.20;7.40;;;;;;;;;;5062146;28;20436;-75
2022/08/18 08:46:05;;;;;;;10.80;7.77;;;;;;;;;;5074931;28;20527;-75
2022/08/18 08:48:35;;;;;;;12.27;7.90;;;;;;;;;;5079183;28;20584;-75
2022/08/18 08:51:17;;;;;;;8.40;7.60;;;;;;;;;;5069818;28;20474;-74
2022/08/18 08:53:46;;;;;;;7.50;6.83;;;;;;;;;;5074436;28;20489;-74
2022/08/18 08:56:15;;;;;;;9.23;7.80;;;;;;;;;;5074071;28;20862;-75
2022/08/18 08:58:41;;;;;;;7.97;7.27;;;;;;;;;;5054571;28;20452;-75
2022/08/18 09:01:12;;;;;;;9.43;8.60;;;;;;;;;;5070310;28;20472;-75
2022/08/18 09:03:44;;;;;;;8.43;7.83;;;;;;;;;;5071827;28;20996;-75
2022/08/18 09:06:26;;;;;;;8.97;8.17;;;;;;;;;;5071735;28;20432;-75
2022/08/18 09:09:01;;;;;;;10.10;8.07;;;;;;;;;;5059730;28;20488;-76
2022/08/18 09:11:47;;;;;;;9.90;9.20;;;;;;;;;;5055818;28;20553;-75
2022/08/18 09:14:26;;;;;;;7.73;7.13;;;;;;;;;;5087571;28;20448;-75
2022/08/18 09:17:15;;;;;;;8.57;7.67;;;;;;;;;;5062243;28;20487;-75
2022/08/18 09:19:45;;;;;;;9.97;8.90;;;;;;;;;;5057869;28;20511;-75
2022/08/18 09:22:30;;;;;;;8.47;7.87;;;;;;;;;;5087097;28;20855;-75
2022/08/18 09:24:57;;;;;;;8.80;8.10;;;;;;;;;;5072085;28;20494;-75
2022/08/18 09:27:31;;;;;;;9.53;8.67;;;;;;;;;;5079198;28;20428;-75
2022/08/18 09:30:36;;;;;;;7.97;7.20;;;;;;;;;;5073666;28;20963;-75
2022/08/18 09:33:09;;;;;;;7.53;6.80;;;;;;;;;;5074254;28;20470;-75
2022/08/18 09:36:07;;;;;;;8.47;7.67;;;;;;;;;;5071387;28;20441;-75
2022/08/18 09:41:30;;;;;;;7.37;6.77;;;;;;;;;;5070115;28;20428;-75
2022/08/18 09:44:09;;;;;;;10.70;8.30;;;;;;;;;;5072794;28;20474;-76
2022/08/18 09:46:47;;;;;;;8.97;8.27;;;;;;;;;;5072151;28;20453;-75
2022/08/18 09:49:25;;;;;;;8.60;7.83;;;;;;;;;;5054883;28;21010;-75
2022/08/18 09:51:56;;;;;;;13.03;9.50;;;;;;;;;;5090563;28;20430;-75
2022/08/18 09:54:26;;;;;;;9.17;8.43;;;;;;;;;;5090372;28;21081;-75
2022/08/18 09:57:16;;;;;;;9.43;8.60;;;;;;;;;;5100551;28;20445;-75
2022/08/18 09:59:46;;;;;;;9.37;8.47;;;;;;;;;;5115201;28;20459;-74
2022/08/18 10:02:30;;;;;;;10.40;7.60;;;;;;;;;;5095573;28;20432;-74
2022/08/18 10:05:12;;;;;;;7.93;7.33;;;;;;;;;;5065764;28;20463;-75
2022/08/18 10:07:42;;;;;;;11.90;9.53;;;;;;;;;;5091593;28;20444;-74
2022/08/18 10:10:09;;;;;;;9.43;8.63;;;;;;;;;;5070942;28;20460;-75
2022/08/18 10:12:56;;;;;;;9.00;8.20;;;;;;;;;;5057215;28;20515;-75
2022/08/18 10:15:31;;;;;;;8.00;7.40;;;;;;;;;;5072271;28;20428;-77
2022/08/18 10:18:17;;;;;;;7.83;7.23;;;;;;;;;;5089631;28;20863;-74
2022/08/18 10:20:47;;;;;;;9.40;8.80;;;;;;;;;;5053236;28;20476;-74
2022/08/18 10:23:33;;;;;;;8.47;7.67;;;;;;;;;;5070224;28;20428;-75
2022/08/18 10:26:31;;;;;;;8.27;7.67;;;;;;;;;;5070022;28;20861;-75
2022/08/18 10:29:01;;;;;;;7.77;7.23;;;;;;;;;;5069649;28;20464;-75
2022/08/18 10:31:28;;;;;;;8.07;7.37;;;;;;;;;;5069594;28;20420;-75
2022/08/18 10:34:01;;;;;;;9.47;8.60;;;;;;;;;;5070671;28;20986;-75
2022/08/18 10:36:46;;;;;;;8.00;7.40;;;;;;;;;;5081192;28;20442;-75
2022/08/18 10:39:26;;;;;;;9.00;8.17;;;;;;;;;;5089822;28;20455;-75
2022/08/18 10:42:01;;;;;;;7.73;7.03;;;;;;;;;;5073217;28;20496;-75
2022/08/18 10:44:29;;;;;;;8.70;8.00;;;;;;;;;;5073013;28;20459;-75
2022/08/18 10:46:58;;;;;;;12.10;8.80;;;;;;;;;;5091673;28;20829;-75
2022/08/18 10:49:26;;;;;;;8.83;8.20;;;;;;;;;;5076658;28;20486;-75
2022/08/18 10:52:00;;;;;;;7.87;7.30;;;;;;;;;;5095076;28;20435;-75
2022/08/18 10:54:28;;;;;;;7.83;7.17;;;;;;;;;;5095299;28;21290;-76
2022/08/18 10:57:09;;;;;;;8.97;8.07;;;;;;;;;;5093264;28;20803;-75
2022/08/18 10:59:39;;;;;;;8.83;7.80;;;;;;;;;;5094633;28;20479;-75
2022/08/18 11:02:20;;;;;;;9.00;8.30;;;;;;;;;;5069936;28;20428;-76
2022/08/18 11:04:56;;;;;;;7.43;6.93;;;;;;;;;;5072930;28;20456;-76
2022/08/18 11:07:47;;;;;;;8.70;7.20;;;;;;;;;;5065620;28;20540;-75
2022/08/18 11:10:32;;;;;;;7.90;7.07;;;;;;;;;;5087419;28;20423;-76
2022/08/18 11:13:28;;;;;;;8.57;7.90;;;;;;;;;;5092890;28;20526;-75
2022/08/18 11:16:11;;;;;;;7.43;6.90;;;;;;;;;;5094969;28;20477;-75
2022/08/18 11:18:53;;;;;;;8.13;7.43;;;;;;;;;;5083946;28;20467;-75
2022/08/18 11:21:24;;;;;;;7.97;7.37;;;;;;;;;;5057797;28;20435;-75
2022/08/18 11:24:01;;;;;;;8.60;6.60;;;;;;;;;;5093637;28;20448;-75
2022/08/18 11:26:29;;;;;;;7.33;6.63;;;;;;;;;;5078186;28;20472;-74
2022/08/18 11:28:56;;;;;;;7.73;6.80;;;;;;;;;;5076015;28;20470;-75
2022/08/18 11:31:23;;;;;;;6.67;6.20;;;;;;;;;;5073039;28;20433;-75
2022/08/18 11:33:50;;;;;;;7.27;6.77;;;;;;;;;;5089516;28;20436;-76
2022/08/18 11:36:17;;;;;;;7.80;7.03;;;;;;;;;;5089627;28;20595;-75
2022/08/18 11:38:55;;;;;;;6.60;6.10;;;;;;;;;;5074086;28;20448;-75
2022/08/18 11:41:27;;;;;;;7.07;6.53;;;;;;;;;;5073807;28;20420;-75
2022/08/18 11:44:19;;;;;;;10.40;5.80;;;;;;;;;;5072221;28;20464;-75
2022/08/18 11:46:45;;;;;;;7.40;6.90;;;;;;;;;;5078001;28;20827;-75
2022/08/18 11:49:19;;;;;;;7.40;5.70;;;;;;;;;;5087632;28;20456;-75
2022/08/18 11:52:25;;;;;;;7.80;7.20;;;;;;;;;;5073777;28;20523;-75
2022/08/18 11:55:01;;;;;;;7.70;7.10;;;;;;;;;;5073372;28;20937;-75
2022/08/18 11:57:52;;;;;;;6.70;6.23;;;;;;;;;;5090907;28;20436;-75
2022/08/18 12:00:34;;;;;;;6.77;6.17;;;;;;;;;;5073595;28;20424;-75
2022/08/18 12:03:14;;;;;;;7.40;6.90;;;;;;;;;;5058835;28;20429;-75
2022/08/18 12:05:47;;;;;;;7.87;7.17;;;;;;;;;;5071282;28;20461;-76
2022/08/18 12:08:25;;;;;;;10.33;7.30;;;;;;;;;;5073400;28;20472;-76
2022/08/18 12:11:20;;;;;;;8.53;7.93;;;;;;;;;;5088952;28;20533;-76
2022/08/18 12:14:15;;;;;;;8.20;7.50;;;;;;;;;;5086887;28;20800;-76
2022/08/18 12:16:59;;;;;;;6.70;6.20;;;;;;;;;;5086907;28;20823;-76
2022/08/18 12:19:29;;;;;;;7.13;6.53;;;;;;;;;;5089046;28;20482;-76
2022/08/18 12:21:58;;;;;;;6.43;5.93;;;;;;;;;;5089361;28;20812;-76
2022/08/18 12:24:25;;;;;;;8.43;7.00;;;;;;;;;;5088951;28;20812;-76
2022/08/18 12:27:02;;;;;;;7.00;6.40;;;;;;;;;;5057421;28;20428;-76
2022/08/18 12:29:47;;;;;;;7.27;6.70;;;;;;;;;;5073705;28;20458;-76
2022/08/18 12:32:15;;;;;;;7.33;6.73;;;;;;;;;;5072190;28;20429;-76
2022/08/18 12:35:02;;;;;;;8.10;6.30;;;;;;;;;;5071584;28;20961;-76
2022/08/18 12:37:36;;;;;;;7.00;6.60;;;;;;;;;;5071390;28;20845;-76
2022/08/18 12:40:23;;;;;;;6.77;6.27;;;;;;;;;;5082047;28;20515;-76
2022/08/18 12:42:51;;;;;;;7.10;6.17;;;;;;;;;;5095503;28;20488;-76
2022/08/18 12:45:21;;;;;;;7.20;6.60;;;;;;;;;;5115440;28;20530;-76
2022/08/18 12:47:50;;;;;;;6.47;5.87;;;;;;;;;;5086445;28;20447;-75
2022/08/18 12:50:18;;;;;;;6.10;5.60;;;;;;;;;;5093984;28;20512;-76
2022/08/18 12:52:45;;;;;;;8.47;7.77;;;;;;;;;;5091536;28;20427;-76
2022/08/18 12:55:12;;;;;;;6.97;6.13;;;;;;;;;;5091329;28;20440;-76
2022/08/18 12:57:47;;;;;;;6.67;6.03;;;;;;;;;;5091162;28;20435;-76
2022/08/18 13:00:20;;;;;;;6.47;5.97;;;;;;;;;;5082999;28;20429;-76
2022/08/18 13:02:53;;;;;;;5.90;5.50;;;;;;;;;;5059427;28;20527;-76
2022/08/18 13:05:20;;;;;;;7.07;6.37;;;;;;;;;;5071076;28;20479;-76
2022/08/18 13:07:56;;;;;;;6.30;5.80;;;;;;;;;;5075281;28;20417;-76
2022/08/18 13:10:23;;;;;;;6.63;6.03;;;;;;;;;;5087208;28;20545;-76
2022/08/18 13:13:10;;;;;;;6.70;6.20;;;;;;;;;;5071330;28;20446;-76
2022/08/18 13:15:36;;;;;;;6.90;6.20;;;;;;;;;;5088486;28;20429;-76
2022/08/18 13:18:03;;;;;;;6.83;6.23;;;;;;;;;;5072412;28;20841;-76
2022/08/18 13:20:30;;;;;;;8.90;6.93;;;;;;;;;;5071835;28;20440;-76
2022/08/18 13:22:56;;;;;;;7.77;6.97;;;;;;;;;;5091418;28;20481;-74
2022/08/18 13:25:23;;;;;;;8.13;6.70;;;;;;;;;;5075381;28;20456;-74
2022/08/18 13:28:05;;;;;;;7.50;6.93;;;;;;;;;;5077768;28;20419;-74
2022/08/18 13:30:31;;;;;;;7.67;7.07;;;;;;;;;;5074427;28;20431;-74
2022/08/18 13:33:01;;;;;;;6.53;5.93;;;;;;;;;;5072453;28;20443;-76
2022/08/18 13:35:48;;;;;;;7.03;6.33;;;;;;;;;;5070192;28;20446;-74
2022/08/18 13:38:22;;;;;;;8.07;7.43;;;;;;;;;;5069983;28;20462;-74
2022/08/18 13:40:53;;;;;;;6.57;6.17;;;;;;;;;;5071348;28;20905;-74
2022/08/18 13:43:25;;;;;;;6.73;6.17;;;;;;;;;;5069900;28;20517;-74
2022/08/18 13:45:52;;;;;;;7.93;7.33;;;;;;;;;;5069929;28;20467;-75
2022/08/18 13:48:22;;;;;;;6.47;5.83;;;;;;;;;;5070315;28;20453;-74
2022/08/18 13:50:51;;;;;;;7.40;6.63;;;;;;;;;;5071139;28;20424;-73
2022/08/18 13:53:19;;;;;;;8.50;7.70;;;;;;;;;;5069745;28;20438;-74
2022/08/18 13:55:46;;;;;;;7.90;7.20;;;;;;;;;;5069814;28;20435;-74
2022/08/18 13:58:12;;;;;;;7.73;7.03;;;;;;;;;;5069890;28;20521;-74
2022/08/18 14:00:50;;;;;;;7.87;7.17;;;;;;;;;;5072254;28;20518;-74
2022/08/18 14:03:17;;;;;;;8.20;7.60;;;;;;;;;;5087912;28;20442;-74
2022/08/18 14:06:04;;;;;;;7.20;6.60;;;;;;;;;;5071888;28;20512;-75
2022/08/18 14:08:32;;;;;;;8.13;7.43;;;;;;;;;;5077977;28;20976;-74
2022/08/18 14:11:01;;;;;;;8.10;7.57;;;;;;;;;;5057479;28;20986;-74
2022/08/18 14:13:28;;;;;;;7.47;6.90;;;;;;;;;;5069682;28;20849;-73
2022/08/18 14:16:03;;;;;;;8.10;6.80;;;;;;;;;;5085620;28;20434;-73
2022/08/18 14:18:30;;;;;;;6.93;6.33;;;;;;;;;;5069824;28;21053;-73
2022/08/18 14:26:47;;;;;;;7.00;6.43;;;;;;;;;;5076357;28;20456;-75
2022/08/18 14:29:16;;;;;;;6.77;6.27;;;;;;;;;;5080183;28;20432;-76
2022/08/18 14:32:04;;;;;;;6.10;5.70;;;;;;;;;;5077089;28;20938;-76
2022/08/18 14:34:30;;;;;;;7.60;6.20;;;;;;;;;;5079436;28;20439;-76
2022/08/18 14:36:57;;;;;;;10.13;6.30;;;;;;;;;;5074936;28;20448;-77
2022/08/18 14:39:24;;;;;;;6.27;5.77;;;;;;;;;;5076732;28;20503;-77
2022/08/18 14:41:51;;;;;;;6.47;5.97;;;;;;;;;;5081956;28;20433;-76
2022/08/18 14:44:22;;;;;;;7.00;6.50;;;;;;;;;;5074625;28;20471;-76
2022/08/18 14:46:57;;;;;;;6.63;6.17;;;;;;;;;;5074270;28;20491;-77
2022/08/18 14:49:24;;;;;;;6.13;5.70;;;;;;;;;;5091747;28;20894;-77
2022/08/18 14:51:58;;;;;;;6.50;6.00;;;;;;;;;;5097850;28;20411;-77
2022/08/18 14:54:26;;;;;;;7.87;7.13;;;;;;;;;;5096819;28;20423;-77
2022/08/18 14:56:56;;;;;;;7.30;6.60;;;;;;;;;;5077321;28;20969;-76
2022/08/18 14:59:23;;;;;;;7.00;5.87;;;;;;;;;;5094131;28;20455;-77
2022/08/18 15:01:51;;;;;;;6.30;5.43;;;;;;;;;;5073156;28;20572;-76
2022/08/18 15:04:19;;;;;;;6.03;5.40;;;;;;;;;;5073621;28;20793;-77
2022/08/18 15:06:48;;;;;;;8.30;6.70;;;;;;;;;;5092768;28;20464;-76
2022/08/18 15:09:21;;;;;;;6.03;5.53;;;;;;;;;;5060258;28;20459;-77
2022/08/18 15:11:49;;;;;;;6.23;5.83;;;;;;;;;;5073977;28;20805;-76
2022/08/18 15:14:20;;;;;;;6.20;5.80;;;;;;;;;;5075307;28;20413;-77
2022/08/18 15:16:52;;;;;;;7.53;5.90;;;;;;;;;;5073548;28;20962;-77
2022/08/18 15:19:21;;;;;;;7.03;6.33;;;;;;;;;;5073719;28;20463;-77
2022/08/18 15:27:38;;;;;;;6.70;6.10;;;;;;;;;;5090848;28;20425;-76
2022/08/18 15:30:13;;;;;;;6.67;6.00;;;;;;;;;;5091431;28;20463;-77
2022/08/18 15:32:45;;;;;;;5.27;4.87;;;;;;;;;;5090917;28;21353;-76
2022/08/18 15:35:15;;;;;;;6.93;6.17;;;;;;;;;;5089897;28;20436;-76
2022/08/18 15:37:43;;;;;;;6.80;6.27;;;;;;;;;;5089614;28;20478;-77
2022/08/18 15:40:10;;;;;;;5.67;5.00;;;;;;;;;;5075530;28;20498;-77